Time;durP1;ratioP1;P1;durP2;ratioP2;P2;SDS_P1;SDS_P2;PMS_P1;PMS_P2;Temp;Humidity;BMP_temperature;BMP_pressure;BME280_temperature;BME280_humidity;BME280_pressure;Samples;Min_cycle;Max_cycle;Signal;HPM_P1;HPM_P2
2024/04/03 00:00:35;;;;;;;;;;;11.50;99.90;;;;;;5052001;28;20351;-69
2024/04/03 00:03:01;;;;;;;;;;;11.50;99.90;;;;;;5051900;28;19912;-69
2024/04/03 00:05:26;;;;;;;;;;;11.60;99.90;;;;;;5051805;28;19909;-69
2024/04/03 00:07:52;;;;;;;;;;;11.50;99.90;;;;;;5051612;28;19912;-70
2024/04/03 00:10:18;;;;;;;;;;;11.50;99.90;;;;;;5051736;28;20428;-69
2024/04/03 00:12:44;;;;;;;;;;;11.50;99.90;;;;;;5053319;28;20550;-69
2024/04/03 00:15:09;;;;;;;;;;;11.50;99.90;;;;;;5055497;28;19956;-70
2024/04/03 00:17:35;;;;;;;;;;;11.50;99.90;;;;;;5055206;28;20356;-69
2024/04/03 00:20:00;;;;;;;;;;;11.50;99.90;;;;;;5055563;28;19912;-70
2024/04/03 00:22:26;;;;;;;;;;;11.50;99.90;;;;;;5055525;28;19905;-70
2024/04/03 00:24:51;;;;;;;;;;;11.50;99.90;;;;;;5055469;28;19912;-69
2024/04/03 00:27:17;;;;;;;;;;;11.50;99.90;;;;;;5055455;28;19904;-70
2024/04/03 00:29:46;;;;;;;;;;;11.40;99.90;;;;;;5055016;28;19908;-69
2024/04/03 00:32:11;;;;;;;;;;;11.40;99.90;;;;;;5055347;28;19999;-69
2024/04/03 00:34:37;;;;;;;;;;;11.40;99.90;;;;;;5055239;28;19943;-69
2024/04/03 00:37:02;;;;;;;;;;;11.40;99.90;;;;;;5055205;28;19916;-69
2024/04/03 00:39:28;;;;;;;;;;;11.30;99.90;;;;;;5054930;28;20443;-69
2024/04/03 00:41:53;;;;;;;;;;;11.40;99.90;;;;;;5055148;28;20463;-70
2024/04/03 00:44:18;;;;;;;;;;;11.30;99.90;;;;;;5055040;28;19905;-69
2024/04/03 00:46:45;;;;;;;;;;;11.30;99.90;;;;;;5055058;28;19915;-69
2024/04/03 00:49:10;;;;;;;;;;;11.30;99.90;;;;;;5055011;28;19912;-69
2024/04/03 00:51:37;;;;;;;;;;;11.30;99.90;;;;;;5054953;28;19904;-69
2024/04/03 00:54:02;;;;;;;;;;;11.30;99.90;;;;;;5054938;28;20357;-69
2024/04/03 00:56:28;;;;;;;;;;;11.30;99.90;;;;;;5054825;28;19915;-69
2024/04/03 00:58:53;;;;;;;;;;;11.30;99.90;;;;;;5054497;28;20296;-69
2024/04/03 01:01:19;;;;;;;;;;;11.30;99.90;;;;;;5054836;28;20292;-70
2024/04/03 01:03:44;;;;;;;;;;;11.30;99.90;;;;;;5054738;28;19904;-70
2024/04/03 01:06:10;;;;;;;;;;;11.20;99.90;;;;;;5054674;28;20280;-71
2024/04/03 01:08:36;;;;;;;;;;;11.20;99.90;;;;;;5054371;28;19943;-70
2024/04/03 01:11:02;;;;;;;;;;;11.20;99.90;;;;;;5054660;28;19993;-71
2024/04/03 01:13:27;;;;;;;;;;;11.20;99.90;;;;;;5054450;28;19905;-70
2024/04/03 01:16:04;;;;;;;;;;;11.20;99.90;;;;;;5054429;28;20383;-70
2024/04/03 01:18:30;;;;;;;;;;;11.20;99.90;;;;;;5054202;28;20292;-70
2024/04/03 01:20:56;;;;;;;;;;;11.20;99.90;;;;;;5054421;28;19911;-70
2024/04/03 01:23:22;;;;;;;;;;;11.20;99.90;;;;;;5054010;28;19905;-70
2024/04/03 01:25:48;;;;;;;;;;;11.20;99.90;;;;;;5053812;28;19940;-70
2024/04/03 01:28:13;;;;;;;;;;;11.40;99.90;;;;;;5053996;28;19904;-70
2024/04/03 01:30:39;;;;;;;;;;;11.30;99.90;;;;;;5054293;28;20342;-69
2024/04/03 01:33:07;;;;;;;;;;;11.30;99.90;;;;;;5054252;28;20245;-70
2024/04/03 01:35:32;;;;;;;;;;;11.40;99.90;;;;;;5054103;28;19908;-70
2024/04/03 01:37:58;;;;;;;;;;;11.30;99.90;;;;;;5053935;28;19905;-69
2024/04/03 01:40:23;;;;;;;;;;;11.30;99.90;;;;;;5054296;28;19931;-70
2024/04/03 01:42:49;;;;;;;;;;;11.30;99.90;;;;;;5054030;28;19901;-70
2024/04/03 01:45:15;;;;;;;;;;;11.30;99.90;;;;;;5054065;28;20284;-70
2024/04/03 01:47:47;;;;;;;;;;;11.30;99.90;;;;;;5053715;28;19912;-69
2024/04/03 01:50:13;;;;;;;;;;;11.30;99.90;;;;;;5053947;28;20384;-70
2024/04/03 01:52:38;;;;;;;;;;;11.30;99.90;;;;;;5053820;28;19958;-69
2024/04/03 01:55:04;;;;;;;;;;;11.40;99.90;;;;;;5053723;28;20007;-70
2024/04/03 01:57:29;;;;;;;;;;;11.40;99.90;;;;;;5053554;28;19946;-70
2024/04/03 01:59:55;;;;;;;;;;;11.60;99.90;;;;;;5053609;28;20103;-70
2024/04/03 02:02:20;;;;;;;;;;;11.50;99.90;;;;;;5053634;28;19996;-69
2024/04/03 02:04:46;;;;;;;;;;;11.50;99.90;;;;;;5053589;28;20368;-70
2024/04/03 02:07:11;;;;;;;;;;;11.50;99.90;;;;;;5053564;28;19912;-70
2024/04/03 02:09:37;;;;;;;;;;;11.50;99.90;;;;;;5053142;28;19905;-69
2024/04/03 02:12:03;;;;;;;;;;;11.40;99.90;;;;;;5053451;28;19928;-70
2024/04/03 02:14:29;;;;;;;;;;;11.40;99.90;;;;;;5053409;28;19911;-70
2024/04/03 02:16:55;;;;;;;;;;;11.50;99.90;;;;;;5053225;28;19916;-70
2024/04/03 02:19:20;;;;;;;;;;;11.30;99.90;;;;;;5053028;28;19995;-70
2024/04/03 02:21:46;;;;;;;;;;;11.20;99.90;;;;;;5053307;28;19905;-69
2024/04/03 02:24:11;;;;;;;;;;;11.20;99.90;;;;;;5053174;28;19905;-69
2024/04/03 02:26:37;;;;;;;;;;;11.10;99.90;;;;;;5053149;28;19999;-70
2024/04/03 02:29:02;;;;;;;;;;;11.10;99.90;;;;;;5052972;28;19905;-70
2024/04/03 02:31:28;;;;;;;;;;;11.00;99.90;;;;;;5053091;28;19909;-70
2024/04/03 02:33:54;;;;;;;;;;;10.90;99.90;;;;;;5053006;28;19912;-71
2024/04/03 02:36:20;;;;;;;;;;;10.80;99.90;;;;;;5052758;28;20280;-71
2024/04/03 02:38:45;;;;;;;;;;;10.80;99.90;;;;;;5052619;28;20292;-70
2024/04/03 02:41:11;;;;;;;;;;;10.90;99.90;;;;;;5052916;28;20299;-71
2024/04/03 02:43:36;;;;;;;;;;;10.90;99.90;;;;;;5052861;28;19905;-70
2024/04/03 02:46:02;;;;;;;;;;;10.90;99.90;;;;;;5052833;28;19911;-71
2024/04/03 02:48:27;;;;;;;;;;;10.90;99.90;;;;;;5052500;28;20255;-70
2024/04/03 02:50:59;;;;;;;;;;;10.90;99.90;;;;;;5052763;28;20319;-70
2024/04/03 02:53:25;;;;;;;;;;;10.90;99.90;;;;;;5052615;28;20469;-71
2024/04/03 02:55:50;;;;;;;;;;;10.90;99.90;;;;;;5052523;28;19909;-70
2024/04/03 02:58:16;;;;;;;;;;;10.70;99.90;;;;;;5052323;28;20015;-70
2024/04/03 03:00:41;;;;;;;;;;;10.80;99.90;;;;;;5052585;28;19904;-70
2024/04/03 03:03:07;;;;;;;;;;;10.80;99.90;;;;;;5052628;28;19912;-70
2024/04/03 03:05:32;;;;;;;;;;;10.80;99.90;;;;;;5052525;28;19911;-71
2024/04/03 03:07:58;;;;;;;;;;;10.80;99.90;;;;;;5052181;28;19905;-70
2024/04/03 03:10:23;;;;;;;;;;;10.80;99.90;;;;;;5052292;28;20284;-70
2024/04/03 03:12:49;;;;;;;;;;;11.00;99.90;;;;;;5052403;28;19904;-70
2024/04/03 03:15:14;;;;;;;;;;;10.90;99.90;;;;;;5052300;28;19908;-70
2024/04/03 03:17:40;;;;;;;;;;;10.80;99.90;;;;;;5051991;28;19920;-70
2024/04/03 03:20:06;;;;;;;;;;;10.80;99.90;;;;;;5052284;28;19955;-70
2024/04/03 03:22:31;;;;;;;;;;;10.80;99.90;;;;;;5052232;28;19911;-70
2024/04/03 03:24:56;;;;;;;;;;;10.80;99.90;;;;;;5052212;28;19905;-70
2024/04/03 03:27:22;;;;;;;;;;;10.80;99.90;;;;;;5052021;28;19905;-70
2024/04/03 03:29:47;;;;;;;;;;;10.80;99.90;;;;;;5052132;28;19950;-71
2024/04/03 03:32:13;;;;;;;;;;;10.90;99.90;;;;;;5052174;28;19905;-71
2024/04/03 03:34:38;;;;;;;;;;;10.80;99.90;;;;;;5052151;28;20059;-71
2024/04/03 03:37:04;;;;;;;;;;;10.90;99.90;;;;;;5052081;28;19917;-70
2024/04/03 03:39:29;;;;;;;;;;;10.90;99.90;;;;;;5051807;28;20417;-69
2024/04/03 03:41:56;;;;;;;;;;;10.80;99.90;;;;;;5052040;28;20038;-69
2024/04/03 03:44:21;;;;;;;;;;;10.80;99.90;;;;;;5052031;28;19904;-69
2024/04/03 03:46:47;;;;;;;;;;;10.70;99.90;;;;;;5052062;28;19909;-70
2024/04/03 03:54:40;;;;;;;;;;;10.70;99.90;;;;;;5056105;28;19912;-70
2024/04/03 03:57:06;;;;;;;;;;;10.80;99.90;;;;;;5055980;28;19917;-70
2024/04/03 03:59:31;;;;;;;;;;;10.80;99.90;;;;;;5055711;28;19911;-70
2024/04/03 04:01:57;;;;;;;;;;;10.80;99.90;;;;;;5055904;28;19993;-70
2024/04/03 04:04:22;;;;;;;;;;;10.90;99.90;;;;;;5055823;28;19923;-70
2024/04/03 04:06:48;;;;;;;;;;;10.90;99.90;;;;;;5055834;28;19904;-70
2024/04/03 04:09:13;;;;;;;;;;;10.90;99.90;;;;;;5055474;28;19963;-70
2024/04/03 04:11:39;;;;;;;;;;;10.80;99.90;;;;;;5055747;28;19905;-69
2024/04/03 04:14:04;;;;;;;;;;;10.90;99.90;;;;;;5055682;28;19912;-71
2024/04/03 04:16:30;;;;;;;;;;;10.80;99.90;;;;;;5055467;28;20427;-68
2024/04/03 04:18:55;;;;;;;;;;;10.80;99.90;;;;;;5055272;28;19905;-69
2024/04/03 04:21:22;;;;;;;;;;;10.80;99.90;;;;;;5055584;28;19931;-69
2024/04/03 04:23:48;;;;;;;;;;;10.80;99.90;;;;;;5055493;28;19905;-69
2024/04/03 04:26:14;;;;;;;;;;;10.80;99.90;;;;;;5055429;28;19940;-69
2024/04/03 04:28:39;;;;;;;;;;;10.80;99.90;;;;;;5055181;28;19909;-69
2024/04/03 04:31:05;;;;;;;;;;;10.80;99.90;;;;;;5055375;28;19931;-69
2024/04/03 04:33:31;;;;;;;;;;;10.80;99.90;;;;;;5055353;28;19911;-69
2024/04/03 04:35:57;;;;;;;;;;;10.80;99.90;;;;;;5055233;28;19909;-68
2024/04/03 04:38:26;;;;;;;;;;;10.70;99.90;;;;;;5054885;28;19909;-69
2024/04/03 04:40:55;;;;;;;;;;;10.70;99.90;;;;;;5055190;28;20372;-69
2024/04/03 04:43:21;;;;;;;;;;;10.70;99.90;;;;;;5055208;28;20387;-69
2024/04/03 04:45:46;;;;;;;;;;;10.70;99.90;;;;;;5055056;28;19943;-69
2024/04/03 04:48:12;;;;;;;;;;;10.60;99.90;;;;;;5054832;28;19967;-69
2024/04/03 04:50:37;;;;;;;;;;;10.60;99.90;;;;;;5055052;28;20395;-69
2024/04/03 04:53:03;;;;;;;;;;;10.70;99.90;;;;;;5054909;28;19904;-69
2024/04/03 04:55:29;;;;;;;;;;;10.60;99.90;;;;;;5054988;28;20288;-68
2024/04/03 04:57:54;;;;;;;;;;;10.60;99.90;;;;;;5054486;28;19905;-69
2024/04/03 05:00:20;;;;;;;;;;;10.70;99.90;;;;;;5053662;28;19905;-69
2024/04/03 05:02:45;;;;;;;;;;;10.70;99.90;;;;;;5054777;28;20330;-69
2024/04/03 05:05:11;;;;;;;;;;;10.70;99.90;;;;;;5054730;28;19905;-69
2024/04/03 05:07:36;;;;;;;;;;;10.70;99.90;;;;;;5054506;28;20283;-69
2024/04/03 05:10:03;;;;;;;;;;;10.70;99.90;;;;;;5054588;28;19905;-69
2024/04/03 05:12:29;;;;;;;;;;;10.60;99.90;;;;;;5054612;28;19904;-69
2024/04/03 05:14:54;;;;;;;;;;;10.60;99.90;;;;;;5054583;28;20011;-70
2024/04/03 05:17:19;;;;;;;;;;;10.70;99.90;;;;;;5054414;28;19913;-70
2024/04/03 05:19:45;;;;;;;;;;;10.70;99.90;;;;;;5054230;28;20348;-69
2024/04/03 05:22:12;;;;;;;;;;;10.80;99.90;;;;;;5054416;28;19995;-70
2024/04/03 05:24:38;;;;;;;;;;;10.80;99.90;;;;;;5054458;28;20506;-69
2024/04/03 05:27:03;;;;;;;;;;;10.80;99.90;;;;;;5054391;28;19955;-69
2024/04/03 05:29:29;;;;;;;;;;;10.80;99.90;;;;;;5053969;28;19905;-70
2024/04/03 05:31:54;;;;;;;;;;;10.90;99.90;;;;;;5054260;28;19905;-70
2024/04/03 05:34:19;;;;;;;;;;;10.80;99.90;;;;;;5054235;28;19905;-70
2024/04/03 05:36:45;;;;;;;;;;;10.80;99.90;;;;;;5054087;28;19908;-70
2024/04/03 05:39:10;;;;;;;;;;;10.90;99.90;;;;;;5053877;28;19999;-70
2024/04/03 05:41:36;;;;;;;;;;;10.90;99.90;;;;;;5054133;28;20383;-71
2024/04/03 05:44:01;;;;;;;;;;;11.00;99.90;;;;;;5054008;28;19908;-70
2024/04/03 05:46:27;;;;;;;;;;;10.90;99.90;;;;;;5054000;28;19909;-70
2024/04/03 05:48:52;;;;;;;;;;;10.80;99.90;;;;;;5053609;28;20434;-69
2024/04/03 05:51:18;;;;;;;;;;;10.90;99.90;;;;;;5053924;28;19940;-71
2024/04/03 05:53:43;;;;;;;;;;;10.90;99.90;;;;;;5053851;28;20400;-70
2024/04/03 05:56:09;;;;;;;;;;;11.00;99.90;;;;;;5053729;28;20352;-70
2024/04/03 05:58:34;;;;;;;;;;;10.90;99.90;;;;;;5053468;28;19904;-69
2024/04/03 06:01:01;;;;;;;;;;;10.90;99.90;;;;;;5053720;28;20454;-70
2024/04/03 06:03:26;;;;;;;;;;;10.90;99.90;;;;;;5053681;28;19912;-70
2024/04/03 06:05:53;;;;;;;;;;;10.90;99.90;;;;;;5053625;28;19909;-70
2024/04/03 06:08:20;;;;;;;;;;;11.20;99.90;;;;;;5053293;28;20323;-70
2024/04/03 06:10:45;;;;;;;;;;;11.00;99.90;;;;;;5053120;28;19905;-70
2024/04/03 06:13:11;;;;;;;;;;;10.90;99.90;;;;;;5053418;28;19905;-69
2024/04/03 06:15:37;;;;;;;;;;;11.00;99.90;;;;;;5053364;28;19909;-69
2024/04/03 06:18:02;;;;;;;;;;;10.90;99.90;;;;;;5053119;28;19912;-69
2024/04/03 06:20:28;;;;;;;;;;;11.00;99.90;;;;;;5053266;28;19956;-69
2024/04/03 06:22:53;;;;;;;;;;;11.20;99.90;;;;;;5053258;28;19995;-69
2024/04/03 06:25:19;;;;;;;;;;;11.10;99.90;;;;;;5053260;28;20323;-69
2024/04/03 06:27:45;;;;;;;;;;;11.00;99.90;;;;;;5052986;28;19911;-69
2024/04/03 06:30:11;;;;;;;;;;;11.10;99.90;;;;;;5053088;28;19904;-69
2024/04/03 06:32:36;;;;;;;;;;;11.00;99.90;;;;;;5053156;28;19912;-68
2024/04/03 06:35:02;;;;;;;;;;;11.10;99.90;;;;;;5052974;28;19905;-68
2024/04/03 06:37:27;;;;;;;;;;;11.20;99.90;;;;;;5052711;28;20292;-69
2024/04/03 06:39:53;;;;;;;;;;;11.30;99.90;;;;;;5052987;28;19909;-68
2024/04/03 06:42:18;;;;;;;;;;;11.30;99.90;;;;;;5052892;28;20445;-69
2024/04/03 06:44:44;;;;;;;;;;;11.30;99.90;;;;;;5052898;28;19908;-69
2024/04/03 06:47:09;;;;;;;;;;;11.20;99.90;;;;;;5052957;28;20297;-69
2024/04/03 06:49:35;;;;;;;;;;;11.40;99.90;;;;;;5052560;28;19905;-69
2024/04/03 06:52:00;;;;;;;;;;;11.30;99.90;;;;;;5052731;28;20418;-70
2024/04/03 06:54:26;;;;;;;;;;;11.30;99.90;;;;;;5052682;28;19905;-70
2024/04/03 06:56:52;;;;;;;;;;;11.40;99.90;;;;;;5052621;28;19915;-69
2024/04/03 06:59:17;;;;;;;;;;;11.40;99.90;;;;;;5052287;28;19917;-69
2024/04/03 07:01:43;;;;;;;;;;;11.40;99.90;;;;;;5052615;28;20090;-69
2024/04/03 07:04:08;;;;;;;;;;;11.50;99.90;;;;;;5052496;28;19905;-69
2024/04/03 07:06:34;;;;;;;;;;;11.60;99.90;;;;;;5052538;28;19909;-69
2024/04/03 07:08:59;;;;;;;;;;;11.50;99.90;;;;;;5052244;28;19905;-69
2024/04/03 07:11:25;;;;;;;;;;;11.60;99.90;;;;;;5052467;28;20025;-69
2024/04/03 07:13:50;;;;;;;;;;;11.60;99.90;;;;;;5052322;28;19911;-70
2024/04/03 07:16:16;;;;;;;;;;;11.60;99.90;;;;;;5052193;28;19912;-69
2024/04/03 07:18:41;;;;;;;;;;;11.60;99.90;;;;;;5052220;28;19905;-70
2024/04/03 07:21:07;;;;;;;;;;;11.60;99.90;;;;;;5052071;28;19904;-69
2024/04/03 07:23:33;;;;;;;;;;;11.50;99.90;;;;;;5051695;28;19912;-70
2024/04/03 07:25:59;;;;;;;;;;;11.50;99.90;;;;;;5052209;28;19909;-70
2024/04/03 07:28:28;;;;;;;;;;;11.50;99.90;;;;;;5051987;28;20356;-69
2024/04/03 07:30:54;;;;;;;;;;;11.40;99.90;;;;;;5052249;28;19909;-68
2024/04/03 07:33:21;;;;;;;;;;;11.50;99.90;;;;;;5052160;28;19911;-68
2024/04/03 07:35:46;;;;;;;;;;;11.50;99.90;;;;;;5052016;28;20353;-69
2024/04/03 07:38:12;;;;;;;;;;;11.50;99.90;;;;;;5051834;28;20009;-68
2024/04/03 07:40:38;;;;;;;;;;;11.60;99.90;;;;;;5052313;28;19905;-69
2024/04/03 07:43:04;;;;;;;;;;;11.50;99.90;;;;;;5051975;28;20345;-69
2024/04/03 07:45:29;;;;;;;;;;;11.50;99.90;;;;;;5052039;28;19908;-69
2024/04/03 07:47:57;;;;;;;;;;;11.50;99.90;;;;;;5051823;28;19909;-69
2024/04/03 07:50:22;;;;;;;;;;;11.60;99.90;;;;;;5051841;28;19911;-69
2024/04/03 07:52:48;;;;;;;;;;;11.60;99.90;;;;;;5051830;28;19987;-69
2024/04/03 07:55:13;;;;;;;;;;;11.70;99.90;;;;;;5051848;28;19909;-69
2024/04/03 07:57:39;;;;;;;;;;;11.80;99.90;;;;;;5051705;28;19908;-69
2024/04/03 08:00:05;;;;;;;;;;;11.90;99.90;;;;;;5051863;28;19909;-69
2024/04/03 08:02:37;;;;;;;;;;;11.90;99.90;;;;;;5051889;28;20004;-68
2024/04/03 08:05:06;;;;;;;;;;;12.00;99.90;;;;;;5051815;28;20288;-68
2024/04/03 08:07:31;;;;;;;;;;;12.00;97.30;;;;;;5051586;28;19909;-69
2024/04/03 08:09:59;;;;;;;;;;;12.20;99.90;;;;;;5051699;28;20414;-70
2024/04/03 08:12:25;;;;;;;;;;;12.30;99.90;;;;;;5051765;28;19954;-68
2024/04/03 08:14:50;;;;;;;;;;;12.40;99.90;;;;;;5051793;28;19940;-69
2024/04/03 08:17:16;;;;;;;;;;;12.50;94.50;;;;;;5051566;28;19919;-69
2024/04/03 08:19:41;;;;;;;;;;;12.40;80.80;;;;;;5051346;28;20281;-69
2024/04/03 08:22:07;;;;;;;;;;;12.40;85.40;;;;;;5051721;28;19958;-69
2024/04/03 08:24:33;;;;;;;;;;;12.40;91.60;;;;;;5051607;28;19916;-69
2024/04/03 08:26:59;;;;;;;;;;;12.30;89.50;;;;;;5051669;28;19911;-69
2024/04/03 08:29:24;;;;;;;;;;;12.40;96.20;;;;;;5051345;28;19904;-69
2024/04/03 08:31:51;;;;;;;;;;;12.30;85.00;;;;;;5051604;28;19959;-69
2024/04/03 08:34:16;;;;;;;;;;;12.40;88.70;;;;;;5054000;28;19974;-69
2024/04/03 08:36:42;;;;;;;;;;;12.40;79.40;;;;;;5055191;28;20364;-69
2024/04/03 08:39:07;;;;;;;;;;;12.40;81.20;;;;;;5054919;28;19904;-69
2024/04/03 08:41:36;;;;;;;;;;;12.40;83.70;;;;;;5055182;28;20361;-69
2024/04/03 08:44:01;;;;;;;;;;;12.20;58.40;;;;;;5055047;28;20012;-68
2024/04/03 08:46:29;;;;;;;;;;;12.30;46.10;;;;;;5055047;28;20413;-69
2024/04/03 08:48:56;;;;;;;;;;;12.20;42.60;;;;;;5054608;28;20441;-69
2024/04/03 08:51:24;;;;;;;;;;;12.20;48.00;;;;;;5054910;28;19905;-69
2024/04/03 08:53:50;;;;;;;;;;;12.10;46.10;;;;;;5054883;28;19911;-70
2024/04/03 08:56:19;;;;;;;;;;;12.10;51.90;;;;;;5054888;28;20364;-68
2024/04/03 08:58:44;;;;;;;;;;;12.10;45.20;;;;;;5054545;28;19987;-69
2024/04/03 09:01:10;;;;;;;;;;;12.20;45.80;;;;;;5054812;28;19940;-69
2024/04/03 09:03:35;;;;;;;;;;;12.10;50.60;;;;;;5054656;28;19912;-69
2024/04/03 09:06:01;;;;;;;;;;;12.10;47.70;;;;;;5054701;28;19904;-69
2024/04/03 09:08:26;;;;;;;;;;;12.10;58.50;;;;;;5054274;28;20003;-68
2024/04/03 09:10:57;;;;;;;;;;;12.00;56.40;;;;;;5054595;28;19912;-68
2024/04/03 09:13:22;;;;;;;;;;;12.20;47.40;;;;;;5054593;28;20387;-69
2024/04/03 09:15:54;;;;;;;;;;;12.20;46.60;;;;;;5054488;28;20130;-70
2024/04/03 09:18:20;;;;;;;;;;;12.40;90.40;;;;;;5054151;28;20003;-69
2024/04/03 09:20:47;;;;;;;;;;;12.20;53.80;;;;;;5054468;28;19952;-69
2024/04/03 09:23:12;;;;;;;;;;;12.30;51.10;;;;;;5054386;28;19931;-69
2024/04/03 09:25:39;;;;;;;;;;;12.30;44.70;;;;;;5054389;28;19905;-69
2024/04/03 09:28:05;;;;;;;;;;;;;;;;;;5054057;28;19905;-68
2024/04/03 09:30:31;;;;;;;;;;;12.40;59.90;;;;;;5054225;28;19909;-69
2024/04/03 09:32:57;;;;;;;;;;;12.50;44.00;;;;;;5054150;28;19909;-68
2024/04/03 09:35:27;;;;;;;;;;;12.50;44.30;;;;;;5054131;28;19949;-69
2024/04/03 09:37:52;;;;;;;;;;;12.60;48.10;;;;;;5053936;28;19909;-69
2024/04/03 09:40:18;;;;;;;;;;;12.50;41.10;;;;;;5054038;28;19971;-69
2024/04/03 09:42:46;;;;;;;;;;;12.40;43.50;;;;;;5054037;28;20296;-69
2024/04/03 09:45:12;;;;;;;;;;;12.50;48.50;;;;;;5053170;28;19905;-70
2024/04/03 09:47:40;;;;;;;;;;;12.50;42.70;;;;;;5053632;28;19940;-70
2024/04/03 09:50:08;;;;;;;;;;;12.60;43.80;;;;;;5053716;28;19959;-70
2024/04/03 09:52:33;;;;;;;;;;;12.60;42.90;;;;;;5053805;28;19909;-69
2024/04/03 09:54:59;;;;;;;;;;;12.70;39.00;;;;;;5053909;28;19950;-70
2024/04/03 09:57:25;;;;;;;;;;;12.80;42.10;;;;;;5053515;28;19924;-69
2024/04/03 09:59:51;;;;;;;;;;;13.00;38.50;;;;;;5053723;28;19958;-69
2024/04/03 10:02:17;;;;;;;;;;;13.00;36.00;;;;;;5053714;28;19966;-70
2024/04/03 10:04:42;;;;;;;;;;;13.30;35.90;;;;;;5053659;28;19904;-69
2024/04/03 10:07:21;;;;;;;;;;;13.40;32.80;;;;;;5053624;28;19905;-69
2024/04/03 10:09:58;;;;;;;;;;;13.40;32.10;;;;;;5053317;28;19904;-70
2024/04/03 10:12:24;;;;;;;;;;;13.50;29.80;;;;;;5053534;28;19916;-69
2024/04/03 10:14:56;;;;;;;;;;;13.40;24.10;;;;;;5053464;28;19904;-69
2024/04/03 10:17:22;;;;;;;;;;;13.30;26.90;;;;;;5053211;28;19917;-69
2024/04/03 10:19:48;;;;;;;;;;;13.20;29.20;;;;;;5053073;28;19911;-69
2024/04/03 10:22:17;;;;;;;;;;;13.20;27.30;;;;;;5053338;28;19944;-69
2024/04/03 10:24:43;;;;;;;;;;;13.20;24.70;;;;;;5053322;28;19905;-69
2024/04/03 10:27:09;;;;;;;;;;;13.20;26.00;;;;;;5053194;28;20331;-70
2024/04/03 10:29:35;;;;;;;;;;;12.90;22.70;;;;;;5052857;28;19908;-69
2024/04/03 10:32:00;;;;;;;;;;;13.00;26.60;;;;;;5053083;28;19958;-69
2024/04/03 10:34:26;;;;;;;;;;;12.90;24.30;;;;;;5053106;28;19940;-68
2024/04/03 10:36:51;;;;;;;;;;;13.00;26.80;;;;;;5052978;28;19944;-69
2024/04/03 10:39:17;;;;;;;;;;;12.70;24.30;;;;;;5052768;28;19904;-70
2024/04/03 10:41:42;;;;;;;;;;;12.90;27.50;;;;;;5052925;28;19912;-70
2024/04/03 10:44:11;;;;;;;;;;;12.90;25.70;;;;;;5052883;28;20306;-69
2024/04/03 10:46:37;;;;;;;;;;;12.90;27.40;;;;;;5052777;28;20018;-70
2024/04/03 10:49:04;;;;;;;;;;;12.90;22.90;;;;;;5052567;28;19916;-69
2024/04/03 10:51:30;;;;;;;;;;;13.00;27.40;;;;;;5052779;28;19904;-70
2024/04/03 10:53:56;;;;;;;;;;;13.00;28.70;;;;;;5052736;28;19905;-70
2024/04/03 10:56:25;;;;;;;;;;;13.10;25.40;;;;;;5052608;28;19908;-70
2024/04/03 10:58:50;;;;;;;;;;;13.00;24.50;;;;;;5052321;28;19912;-69
2024/04/03 11:01:16;;;;;;;;;;;13.20;24.90;;;;;;5052733;28;19905;-69
2024/04/03 11:03:42;;;;;;;;;;;13.10;27.90;;;;;;5052632;28;19931;-69
2024/04/03 11:06:09;;;;;;;;;;;13.20;27.20;;;;;;5052626;28;19958;-68
2024/04/03 11:08:34;;;;;;;;;;;13.10;24.70;;;;;;5052204;28;19951;-69
2024/04/03 11:11:09;;;;;;;;;;;13.30;26.90;;;;;;5052535;28;19904;-68
2024/04/03 11:13:35;;;;;;;;;;;13.20;25.70;;;;;;5052386;28;19927;-69
2024/04/03 11:16:01;;;;;;;;;;;13.30;23.60;;;;;;5052163;28;19908;-68
2024/04/03 11:18:27;;;;;;;;;;;13.50;22.90;;;;;;5052089;28;19955;-68
2024/04/03 11:20:52;;;;;;;;;;;13.50;20.40;;;;;;5052355;28;19904;-69
2024/04/03 11:23:18;;;;;;;;;;;13.50;19.50;;;;;;5052413;28;19905;-68
2024/04/03 11:25:43;;;;;;;;;;;13.50;21.20;;;;;;5052223;28;19959;-69
2024/04/03 11:28:09;;;;;;;;;;;13.70;43.00;;;;;;5051968;28;20361;-69
2024/04/03 11:30:38;;;;;;;;;;;13.70;18.10;;;;;;5052353;28;20361;-69
2024/04/03 11:33:03;;;;;;;;;;;13.60;18.50;;;;;;5052116;28;19913;-69
2024/04/03 11:35:29;;;;;;;;;;;13.70;17.70;;;;;;5052064;28;21918;-70
2024/04/03 11:37:54;;;;;;;;;;;13.80;18.40;;;;;;5051889;28;19909;-70
2024/04/03 11:40:20;;;;;;;;;;;13.90;16.50;;;;;;5052065;28;19912;-69
2024/04/03 11:42:45;;;;;;;;;;;14.00;14.30;;;;;;5052045;28;19995;-70
2024/04/03 11:45:11;;;;;;;;;;;14.00;11.80;;;;;;5052095;28;19927;-70
2024/04/03 11:47:36;;;;;;;;;;;14.10;13.20;;;;;;5051815;28;19909;-69
2024/04/03 11:50:06;;;;;;;;;;;14.10;12.10;;;;;;5051931;28;19912;-69
2024/04/03 11:52:32;;;;;;;;;;;14.10;9.20;;;;;;5052098;28;20357;-69
2024/04/03 11:54:57;;;;;;;;;;;14.10;8.20;;;;;;5051928;28;19951;-69
2024/04/03 11:57:23;;;;;;;;;;;14.20;7.20;;;;;;5051881;28;19912;-70
2024/04/03 11:59:49;;;;;;;;;;;14.20;6.70;;;;;;5051690;28;19958;-69
2024/04/03 12:02:14;;;;;;;;;;;14.30;7.70;;;;;;5051958;28;19905;-69
2024/04/03 12:04:40;;;;;;;;;;;14.40;7.20;;;;;;5051848;28;19905;-70
2024/04/03 12:07:05;;;;;;;;;;;14.40;7.30;;;;;;5051863;28;19904;-70
2024/04/03 12:09:31;;;;;;;;;;;14.60;7.80;;;;;;5054507;28;19950;-70
2024/04/03 12:11:56;;;;;;;;;;;14.60;6.80;;;;;;5055821;28;19904;-70
2024/04/03 12:14:22;;;;;;;;;;;14.70;7.70;;;;;;5055736;28;19904;-71
2024/04/03 12:16:52;;;;;;;;;;;14.70;8.10;;;;;;5055535;28;19912;-70
2024/04/03 12:19:26;;;;;;;;;;;14.70;11.60;;;;;;5055462;28;19905;-70
2024/04/03 12:21:53;;;;;;;;;;;14.70;11.80;;;;;;5055691;28;19904;-70
2024/04/03 12:24:19;;;;;;;;;;;14.70;11.20;;;;;;5055535;28;19916;-71
2024/04/03 12:26:45;;;;;;;;;;;14.60;13.50;;;;;;5055651;28;19905;-71
2024/04/03 12:29:12;;;;;;;;;;;14.60;13.40;;;;;;5055158;28;19905;-70
2024/04/03 12:31:37;;;;;;;;;;;14.60;13.90;;;;;;5055457;28;19909;-71
2024/04/03 12:34:06;;;;;;;;;;;14.60;14.40;;;;;;5055421;28;19915;-70
2024/04/03 12:36:31;;;;;;;;;;;14.70;11.20;;;;;;5055208;28;19915;-69
2024/04/03 12:38:57;;;;;;;;;;;14.60;11.80;;;;;;5055016;28;20003;-69
2024/04/03 12:41:22;;;;;;;;;;;14.60;13.90;;;;;;5055324;28;19987;-69
2024/04/03 12:43:48;;;;;;;;;;;14.70;14.50;;;;;;5055142;28;20364;-69
2024/04/03 12:46:13;;;;;;;;;;;14.70;14.20;;;;;;5055205;28;19905;-69
2024/04/03 12:48:40;;;;;;;;;;;14.60;14.80;;;;;;5054827;28;19909;-70
2024/04/03 12:51:05;;;;;;;;;;;14.60;13.70;;;;;;5055146;28;19958;-69
2024/04/03 12:53:31;;;;;;;;;;;14.60;14.10;;;;;;5055023;28;19908;-69
2024/04/03 12:55:57;;;;;;;;;;;14.70;13.50;;;;;;5054898;28;20377;-69
2024/04/03 12:58:22;;;;;;;;;;;14.60;13.20;;;;;;5054577;28;19915;-70
2024/04/03 13:00:48;;;;;;;;;;;14.80;13.00;;;;;;5054915;28;19928;-69
2024/04/03 13:03:13;;;;;;;;;;;14.70;13.30;;;;;;5054808;28;19905;-69
2024/04/03 13:05:39;;;;;;;;;;;14.70;12.50;;;;;;5054712;28;20349;-69
2024/04/03 13:08:04;;;;;;;;;;;14.60;14.00;;;;;;5054466;28;19952;-70
2024/04/03 13:10:32;;;;;;;;;;;14.50;17.90;;;;;;5054676;28;19912;-69
2024/04/03 13:13:01;;;;;;;;;;;14.50;19.00;;;;;;5054577;28;19912;-69
2024/04/03 13:15:26;;;;;;;;;;;14.50;18.50;;;;;;5054484;28;19966;-68
2024/04/03 13:17:52;;;;;;;;;;;14.50;21.40;;;;;;5054264;28;20508;-68
2024/04/03 13:20:17;;;;;;;;;;;14.50;25.10;;;;;;5053200;28;19911;-69
2024/04/03 13:22:43;;;;;;;;;;;14.70;23.40;;;;;;5054457;28;19963;-69
2024/04/03 13:25:08;;;;;;;;;;;14.60;21.60;;;;;;5054452;28;19950;-69
2024/04/03 13:27:35;;;;;;;;;;;14.70;22.20;;;;;;5054187;28;19905;-69
2024/04/03 13:30:01;;;;;;;;;;;14.70;22.00;;;;;;5054272;28;19905;-68
2024/04/03 13:32:26;;;;;;;;;;;14.70;27.60;;;;;;5054302;28;20288;-68
2024/04/03 13:34:52;;;;;;;;;;;14.40;23.90;;;;;;5054201;28;19911;-69
2024/04/03 13:37:17;;;;;;;;;;;14.70;23.80;;;;;;5054132;28;19915;-69
2024/04/03 13:39:43;;;;;;;;;;;14.70;22.50;;;;;;5054122;28;19909;-69
2024/04/03 13:42:09;;;;;;;;;;;14.60;25.90;;;;;;5054121;28;19936;-70
2024/04/03 13:44:35;;;;;;;;;;;14.80;26.40;;;;;;5054104;28;19905;-69
2024/04/03 13:47:00;;;;;;;;;;;14.70;25.50;;;;;;5054055;28;19948;-71
2024/04/03 13:49:26;;;;;;;;;;;14.70;21.80;;;;;;5053636;28;19909;-70
2024/04/03 13:51:51;;;;;;;;;;;14.80;23.20;;;;;;5054203;28;19995;-70
2024/04/03 13:54:17;;;;;;;;;;;14.90;22.70;;;;;;5053899;28;19912;-70
2024/04/03 13:56:43;;;;;;;;;;;15.10;24.10;;;;;;5053884;28;19920;-69
2024/04/03 13:59:09;;;;;;;;;;;14.90;23.50;;;;;;5053531;28;19916;-70
2024/04/03 14:01:35;;;;;;;;;;;14.90;24.40;;;;;;5053841;28;20035;-69
2024/04/03 14:04:00;;;;;;;;;;;14.90;24.00;;;;;;5053594;28;19905;-69
2024/04/03 14:06:25;;;;;;;;;;;15.00;23.30;;;;;;5053624;28;19905;-69
2024/04/03 14:08:54;;;;;;;;;;;15.00;26.10;;;;;;5053286;28;20365;-69
2024/04/03 14:11:20;;;;;;;;;;;14.90;27.40;;;;;;5053505;28;19905;-70
2024/04/03 14:13:48;;;;;;;;;;;14.90;26.00;;;;;;5053531;28;19915;-69
2024/04/03 14:16:17;;;;;;;;;;;14.90;26.80;;;;;;5053235;28;20023;-69